sensor_id;sensor_type;location;lat;lon;timestamp;temperature;humidity
40622;DHT22;26324;52.040;11.528;2023-11-19T00:00:09;5.60;90.30
40622;DHT22;26324;52.040;11.528;2023-11-19T00:02:41;5.60;90.40
40622;DHT22;26324;52.040;11.528;2023-11-19T00:05:10;5.60;90.40
40622;DHT22;26324;52.040;11.528;2023-11-19T00:07:40;5.50;90.40
40622;DHT22;26324;52.040;11.528;2023-11-19T00:10:13;5.60;90.40
40622;DHT22;26324;52.040;11.528;2023-11-19T00:12:42;5.60;90.40
40622;DHT22;26324;52.040;11.528;2023-11-19T00:15:12;5.50;90.40
40622;DHT22;26324;52.040;11.528;2023-11-19T00:17:43;5.50;90.40
40622;DHT22;26324;52.040;11.528;2023-11-19T00:20:13;5.50;90.20
40622;DHT22;26324;52.040;11.528;2023-11-19T00:22:44;5.60;90.20
40622;DHT22;26324;52.040;11.528;2023-11-19T00:25:20;5.60;90.10
40622;DHT22;26324;52.040;11.528;2023-11-19T00:27:51;5.60;90.30
40622;DHT22;26324;52.040;11.528;2023-11-19T00:30:20;5.50;90.20
40622;DHT22;26324;52.040;11.528;2023-11-19T00:32:47;5.60;90.30
40622;DHT22;26324;52.040;11.528;2023-11-19T00:35:15;5.60;89.90
40622;DHT22;26324;52.040;11.528;2023-11-19T00:37:43;5.60;89.80
40622;DHT22;26324;52.040;11.528;2023-11-19T00:40:13;6.20;88.00
40622;DHT22;26324;52.040;11.528;2023-11-19T00:42:43;6.10;88.40
40622;DHT22;26324;52.040;11.528;2023-11-19T00:45:11;5.80;89.10
40622;DHT22;26324;52.040;11.528;2023-11-19T00:47:39;5.70;89.30
40622;DHT22;26324;52.040;11.528;2023-11-19T00:50:08;5.70;89.40
40622;DHT22;26324;52.040;11.528;2023-11-19T00:52:39;5.70;89.40
40622;DHT22;26324;52.040;11.528;2023-11-19T00:55:07;5.70;89.50
40622;DHT22;26324;52.040;11.528;2023-11-19T00:57:35;5.70;89.40
40622;DHT22;26324;52.040;11.528;2023-11-19T01:00:04;5.70;89.40
40622;DHT22;26324;52.040;11.528;2023-11-19T01:02:41;5.70;89.40
40622;DHT22;26324;52.040;11.528;2023-11-19T01:05:08;5.70;89.60
40622;DHT22;26324;52.040;11.528;2023-11-19T01:07:36;5.70;89.50
40622;DHT22;26324;52.040;11.528;2023-11-19T01:10:04;5.70;89.40
40622;DHT22;26324;52.040;11.528;2023-11-19T01:12:32;5.70;89.40
40622;DHT22;26324;52.040;11.528;2023-11-19T01:15:00;5.70;89.30
40622;DHT22;26324;52.040;11.528;2023-11-19T01:17:29;5.70;89.40
40622;DHT22;26324;52.040;11.528;2023-11-19T01:19:58;5.70;89.40
40622;DHT22;26324;52.040;11.528;2023-11-19T01:22:26;5.80;89.30
40622;DHT22;26324;52.040;11.528;2023-11-19T01:24:54;5.80;89.30
40622;DHT22;26324;52.040;11.528;2023-11-19T01:27:22;5.80;89.30
40622;DHT22;26324;52.040;11.528;2023-11-19T01:29:49;5.80;89.20
40622;DHT22;26324;52.040;11.528;2023-11-19T01:32:17;5.80;89.10
40622;DHT22;26324;52.040;11.528;2023-11-19T01:34:44;5.80;89.20
40622;DHT22;26324;52.040;11.528;2023-11-19T01:37:12;5.80;89.30
40622;DHT22;26324;52.040;11.528;2023-11-19T01:39:44;5.80;89.30
40622;DHT22;26324;52.040;11.528;2023-11-19T01:42:12;5.80;89.40
40622;DHT22;26324;52.040;11.528;2023-11-19T01:44:39;5.80;89.10
40622;DHT22;26324;52.040;11.528;2023-11-19T01:47:07;5.80;89.20
40622;DHT22;26324;52.040;11.528;2023-11-19T01:49:35;5.80;89.20
40622;DHT22;26324;52.040;11.528;2023-11-19T01:52:02;5.80;89.30
40622;DHT22;26324;52.040;11.528;2023-11-19T01:54:30;5.90;89.30
40622;DHT22;26324;52.040;11.528;2023-11-19T01:56:57;5.80;89.20
40622;DHT22;26324;52.040;11.528;2023-11-19T01:59:25;5.90;89.20
40622;DHT22;26324;52.040;11.528;2023-11-19T02:01:54;5.90;89.30
40622;DHT22;26324;52.040;11.528;2023-11-19T02:04:25;5.90;89.20
40622;DHT22;26324;52.040;11.528;2023-11-19T02:06:56;5.90;89.20
40622;DHT22;26324;52.040;11.528;2023-11-19T02:09:23;5.90;89.20
40622;DHT22;26324;52.040;11.528;2023-11-19T02:11:51;5.90;89.20
40622;DHT22;26324;52.040;11.528;2023-11-19T02:14:18;6.00;89.20
40622;DHT22;26324;52.040;11.528;2023-11-19T02:16:47;5.90;89.10
40622;DHT22;26324;52.040;11.528;2023-11-19T02:19:14;6.00;89.00
40622;DHT22;26324;52.040;11.528;2023-11-19T02:21:43;5.90;89.00
40622;DHT22;26324;52.040;11.528;2023-11-19T02:24:12;6.00;89.00
40622;DHT22;26324;52.040;11.528;2023-11-19T02:27:08;6.00;88.90
40622;DHT22;26324;52.040;11.528;2023-11-19T02:29:37;6.00;89.00
40622;DHT22;26324;52.040;11.528;2023-11-19T02:32:05;6.00;89.00
40622;DHT22;26324;52.040;11.528;2023-11-19T02:34:34;6.00;89.00
40622;DHT22;26324;52.040;11.528;2023-11-19T02:37:01;6.00;89.00
40622;DHT22;26324;52.040;11.528;2023-11-19T02:39:30;6.00;89.30
40622;DHT22;26324;52.040;11.528;2023-11-19T02:41:57;6.00;89.30
40622;DHT22;26324;52.040;11.528;2023-11-19T02:44:25;6.00;89.40
40622;DHT22;26324;52.040;11.528;2023-11-19T02:46:55;6.00;89.50
40622;DHT22;26324;52.040;11.528;2023-11-19T02:49:23;6.00;89.40
40622;DHT22;26324;52.040;11.528;2023-11-19T02:51:51;6.00;89.50
40622;DHT22;26324;52.040;11.528;2023-11-19T02:54:18;6.10;89.60
40622;DHT22;26324;52.040;11.528;2023-11-19T02:56:46;6.10;89.60
40622;DHT22;26324;52.040;11.528;2023-11-19T02:59:22;6.00;89.80
40622;DHT22;26324;52.040;11.528;2023-11-19T03:01:55;6.10;89.80
40622;DHT22;26324;52.040;11.528;2023-11-19T03:04:22;6.10;89.80
40622;DHT22;26324;52.040;11.528;2023-11-19T03:06:50;6.10;89.80
40622;DHT22;26324;52.040;11.528;2023-11-19T03:09:18;6.10;89.90
40622;DHT22;26324;52.040;11.528;2023-11-19T03:11:45;6.10;89.90
40622;DHT22;26324;52.040;11.528;2023-11-19T03:14:12;6.20;89.80
40622;DHT22;26324;52.040;11.528;2023-11-19T03:16:40;6.20;89.80
40622;DHT22;26324;52.040;11.528;2023-11-19T03:19:07;6.20;89.80
40622;DHT22;26324;52.040;11.528;2023-11-19T03:21:34;6.20;89.80
40622;DHT22;26324;52.040;11.528;2023-11-19T03:24:02;6.20;89.90
40622;DHT22;26324;52.040;11.528;2023-11-19T03:26:30;6.20;90.10
40622;DHT22;26324;52.040;11.528;2023-11-19T03:28:57;6.30;90.30
40622;DHT22;26324;52.040;11.528;2023-11-19T03:33:52;7.10;88.30
40622;DHT22;26324;52.040;11.528;2023-11-19T03:36:23;6.70;89.10
40622;DHT22;26324;52.040;11.528;2023-11-19T03:38:51;6.50;89.50
40622;DHT22;26324;52.040;11.528;2023-11-19T03:41:19;6.50;89.90
40622;DHT22;26324;52.040;11.528;2023-11-19T03:43:46;6.50;90.00
40622;DHT22;26324;52.040;11.528;2023-11-19T03:46:20;6.50;90.20
40622;DHT22;26324;52.040;11.528;2023-11-19T03:48:49;6.50;90.40
40622;DHT22;26324;52.040;11.528;2023-11-19T03:51:17;6.50;90.60
40622;DHT22;26324;52.040;11.528;2023-11-19T03:53:45;6.50;90.60
40622;DHT22;26324;52.040;11.528;2023-11-19T03:56:12;6.40;90.80
40622;DHT22;26324;52.040;11.528;2023-11-19T03:58:40;6.50;90.90
40622;DHT22;26324;52.040;11.528;2023-11-19T04:01:11;6.50;91.00
40622;DHT22;26324;52.040;11.528;2023-11-19T04:03:40;6.60;90.90
40622;DHT22;26324;52.040;11.528;2023-11-19T04:06:18;6.60;90.90
40622;DHT22;26324;52.040;11.528;2023-11-19T04:08:45;6.70;90.80
40622;DHT22;26324;52.040;11.528;2023-11-19T04:11:13;6.70;91.00
40622;DHT22;26324;52.040;11.528;2023-11-19T04:13:40;6.70;90.90
40622;DHT22;26324;52.040;11.528;2023-11-19T04:16:08;6.70;90.90
40622;DHT22;26324;52.040;11.528;2023-11-19T04:18:35;6.70;90.90
40622;DHT22;26324;52.040;11.528;2023-11-19T04:21:06;6.80;90.90
40622;DHT22;26324;52.040;11.528;2023-11-19T04:23:33;6.90;91.00
40622;DHT22;26324;52.040;11.528;2023-11-19T04:26:04;6.90;90.90
40622;DHT22;26324;52.040;11.528;2023-11-19T04:28:34;7.00;91.10
40622;DHT22;26324;52.040;11.528;2023-11-19T04:31:02;7.10;91.00
40622;DHT22;26324;52.040;11.528;2023-11-19T04:33:30;7.10;91.00
40622;DHT22;26324;52.040;11.528;2023-11-19T04:35:58;7.30;90.90
40622;DHT22;26324;52.040;11.528;2023-11-19T04:38:25;7.30;90.80
40622;DHT22;26324;52.040;11.528;2023-11-19T04:40:54;7.40;90.90
40622;DHT22;26324;52.040;11.528;2023-11-19T04:43:21;7.40;90.70
40622;DHT22;26324;52.040;11.528;2023-11-19T04:45:48;7.40;90.80
40622;DHT22;26324;52.040;11.528;2023-11-19T04:48:16;7.50;90.90
40622;DHT22;26324;52.040;11.528;2023-11-19T04:50:43;7.60;90.80
40622;DHT22;26324;52.040;11.528;2023-11-19T04:53:10;7.70;90.60
40622;DHT22;26324;52.040;11.528;2023-11-19T04:55:38;7.80;90.40
40622;DHT22;26324;52.040;11.528;2023-11-19T04:58:06;7.80;90.30
40622;DHT22;26324;52.040;11.528;2023-11-19T05:00:34;8.00;90.00
40622;DHT22;26324;52.040;11.528;2023-11-19T05:03:01;8.20;89.60
40622;DHT22;26324;52.040;11.528;2023-11-19T05:05:28;8.50;88.80
40622;DHT22;26324;52.040;11.528;2023-11-19T05:07:57;8.60;88.40
40622;DHT22;26324;52.040;11.528;2023-11-19T05:10:24;8.70;88.00
40622;DHT22;26324;52.040;11.528;2023-11-19T05:12:52;8.80;87.90
40622;DHT22;26324;52.040;11.528;2023-11-19T05:15:19;8.80;87.70
40622;DHT22;26324;52.040;11.528;2023-11-19T05:17:46;8.90;87.60
40622;DHT22;26324;52.040;11.528;2023-11-19T05:20:14;9.00;87.40
40622;DHT22;26324;52.040;11.528;2023-11-19T05:22:42;9.00;87.40
40622;DHT22;26324;52.040;11.528;2023-11-19T05:25:10;9.10;87.40
40622;DHT22;26324;52.040;11.528;2023-11-19T05:27:38;9.10;87.20
40622;DHT22;26324;52.040;11.528;2023-11-19T05:30:06;9.10;87.10
40622;DHT22;26324;52.040;11.528;2023-11-19T05:32:38;9.10;87.00
40622;DHT22;26324;52.040;11.528;2023-11-19T05:35:07;9.10;86.90
40622;DHT22;26324;52.040;11.528;2023-11-19T05:37:35;9.10;86.90
40622;DHT22;26324;52.040;11.528;2023-11-19T05:40:03;9.10;87.30
40622;DHT22;26324;52.040;11.528;2023-11-19T05:42:33;9.10;87.30
40622;DHT22;26324;52.040;11.528;2023-11-19T05:45:01;9.10;87.20
40622;DHT22;26324;52.040;11.528;2023-11-19T05:47:28;9.10;87.40
40622;DHT22;26324;52.040;11.528;2023-11-19T05:49:55;9.10;87.20
40622;DHT22;26324;52.040;11.528;2023-11-19T05:52:23;9.10;87.30
40622;DHT22;26324;52.040;11.528;2023-11-19T05:54:50;9.10;87.20
40622;DHT22;26324;52.040;11.528;2023-11-19T05:57:19;9.20;87.30
40622;DHT22;26324;52.040;11.528;2023-11-19T05:59:51;9.30;87.20
40622;DHT22;26324;52.040;11.528;2023-11-19T06:02:18;9.30;86.90
40622;DHT22;26324;52.040;11.528;2023-11-19T06:04:46;9.30;87.10
40622;DHT22;26324;52.040;11.528;2023-11-19T06:07:15;9.30;87.20
40622;DHT22;26324;52.040;11.528;2023-11-19T06:09:44;9.30;87.40
40622;DHT22;26324;52.040;11.528;2023-11-19T06:12:12;9.30;87.60
40622;DHT22;26324;52.040;11.528;2023-11-19T06:14:41;9.30;87.70
40622;DHT22;26324;52.040;11.528;2023-11-19T06:17:08;9.30;87.60
40622;DHT22;26324;52.040;11.528;2023-11-19T06:19:38;9.30;87.60
40622;DHT22;26324;52.040;11.528;2023-11-19T06:22:05;9.30;87.60
40622;DHT22;26324;52.040;11.528;2023-11-19T06:24:33;9.30;87.80
40622;DHT22;26324;52.040;11.528;2023-11-19T06:27:01;9.20;87.50
40622;DHT22;26324;52.040;11.528;2023-11-19T06:29:28;9.20;87.50
40622;DHT22;26324;52.040;11.528;2023-11-19T06:31:55;9.20;87.40
40622;DHT22;26324;52.040;11.528;2023-11-19T06:34:23;9.20;87.30
40622;DHT22;26324;52.040;11.528;2023-11-19T06:36:50;9.10;87.50
40622;DHT22;26324;52.040;11.528;2023-11-19T06:39:17;9.10;87.50
40622;DHT22;26324;52.040;11.528;2023-11-19T06:41:45;9.10;87.60
40622;DHT22;26324;52.040;11.528;2023-11-19T06:44:13;9.10;87.60
40622;DHT22;26324;52.040;11.528;2023-11-19T06:46:40;9.10;87.60
40622;DHT22;26324;52.040;11.528;2023-11-19T06:49:08;9.10;87.50
40622;DHT22;26324;52.040;11.528;2023-11-19T06:51:35;9.20;87.40
40622;DHT22;26324;52.040;11.528;2023-11-19T06:54:03;9.30;87.30
40622;DHT22;26324;52.040;11.528;2023-11-19T06:56:30;9.30;87.10
40622;DHT22;26324;52.040;11.528;2023-11-19T06:58:58;9.30;87.00
40622;DHT22;26324;52.040;11.528;2023-11-19T07:01:25;9.30;87.10
40622;DHT22;26324;52.040;11.528;2023-11-19T07:03:53;9.30;87.10
40622;DHT22;26324;52.040;11.528;2023-11-19T07:06:20;9.30;87.10
40622;DHT22;26324;52.040;11.528;2023-11-19T07:09:02;9.30;87.10
40622;DHT22;26324;52.040;11.528;2023-11-19T07:11:38;9.50;87.10
40622;DHT22;26324;52.040;11.528;2023-11-19T07:14:07;9.60;87.10
40622;DHT22;26324;52.040;11.528;2023-11-19T07:16:35;9.60;86.70
40622;DHT22;26324;52.040;11.528;2023-11-19T07:19:06;9.70;86.50
40622;DHT22;26324;52.040;11.528;2023-11-19T07:21:34;9.70;86.40
40622;DHT22;26324;52.040;11.528;2023-11-19T07:24:02;9.80;86.20
40622;DHT22;26324;52.040;11.528;2023-11-19T07:26:29;10.00;86.10
40622;DHT22;26324;52.040;11.528;2023-11-19T07:28:57;10.10;85.50
40622;DHT22;26324;52.040;11.528;2023-11-19T07:31:25;10.10;85.40
40622;DHT22;26324;52.040;11.528;2023-11-19T07:33:52;10.10;85.30
40622;DHT22;26324;52.040;11.528;2023-11-19T07:36:20;10.10;85.30
40622;DHT22;26324;52.040;11.528;2023-11-19T07:38:47;10.20;85.20
40622;DHT22;26324;52.040;11.528;2023-11-19T07:41:15;10.20;85.20
40622;DHT22;26324;52.040;11.528;2023-11-19T07:43:43;10.30;85.10
40622;DHT22;26324;52.040;11.528;2023-11-19T07:46:12;10.20;85.20
40622;DHT22;26324;52.040;11.528;2023-11-19T07:48:42;10.20;85.10
40622;DHT22;26324;52.040;11.528;2023-11-19T07:51:11;10.20;85.10
40622;DHT22;26324;52.040;11.528;2023-11-19T07:53:39;10.20;85.10
40622;DHT22;26324;52.040;11.528;2023-11-19T07:56:08;10.20;85.10
40622;DHT22;26324;52.040;11.528;2023-11-19T07:58:35;10.40;85.00
40622;DHT22;26324;52.040;11.528;2023-11-19T08:01:04;10.50;84.50
40622;DHT22;26324;52.040;11.528;2023-11-19T08:03:32;10.60;84.50
40622;DHT22;26324;52.040;11.528;2023-11-19T08:06:03;10.70;84.30
40622;DHT22;26324;52.040;11.528;2023-11-19T08:08:30;10.70;84.20
40622;DHT22;26324;52.040;11.528;2023-11-19T08:11:00;10.80;83.90
40622;DHT22;26324;52.040;11.528;2023-11-19T08:13:27;10.80;83.90
40622;DHT22;26324;52.040;11.528;2023-11-19T08:15:55;10.80;83.70
40622;DHT22;26324;52.040;11.528;2023-11-19T08:18:22;10.80;83.80
40622;DHT22;26324;52.040;11.528;2023-11-19T08:20:50;10.90;83.80
40622;DHT22;26324;52.040;11.528;2023-11-19T08:23:20;11.00;83.80
40622;DHT22;26324;52.040;11.528;2023-11-19T08:25:48;11.10;83.40
40622;DHT22;26324;52.040;11.528;2023-11-19T08:28:15;11.10;83.20
40622;DHT22;26324;52.040;11.528;2023-11-19T08:30:42;11.30;83.00
40622;DHT22;26324;52.040;11.528;2023-11-19T08:33:11;11.40;82.80
40622;DHT22;26324;52.040;11.528;2023-11-19T08:35:38;11.50;82.90
40622;DHT22;26324;52.040;11.528;2023-11-19T08:38:06;11.60;82.30
40622;DHT22;26324;52.040;11.528;2023-11-19T08:40:34;11.70;82.40
40622;DHT22;26324;52.040;11.528;2023-11-19T08:43:01;11.70;82.00
40622;DHT22;26324;52.040;11.528;2023-11-19T08:45:28;11.80;81.80
40622;DHT22;26324;52.040;11.528;2023-11-19T08:47:57;11.80;81.70
40622;DHT22;26324;52.040;11.528;2023-11-19T08:50:25;11.90;81.30
40622;DHT22;26324;52.040;11.528;2023-11-19T08:52:54;12.00;81.20
40622;DHT22;26324;52.040;11.528;2023-11-19T08:55:21;12.00;81.10
40622;DHT22;26324;52.040;11.528;2023-11-19T08:57:48;12.20;80.80
40622;DHT22;26324;52.040;11.528;2023-11-19T09:00:16;12.20;80.40
40622;DHT22;26324;52.040;11.528;2023-11-19T09:02:43;12.40;80.10
40622;DHT22;26324;52.040;11.528;2023-11-19T09:05:11;12.50;79.60
40622;DHT22;26324;52.040;11.528;2023-11-19T09:07:40;12.60;78.70
40622;DHT22;26324;52.040;11.528;2023-11-19T09:10:07;12.70;77.70
40622;DHT22;26324;52.040;11.528;2023-11-19T09:12:36;12.80;77.80
40622;DHT22;26324;52.040;11.528;2023-11-19T09:15:03;12.90;77.10
40622;DHT22;26324;52.040;11.528;2023-11-19T09:17:30;13.00;76.50
40622;DHT22;26324;52.040;11.528;2023-11-19T09:19:58;13.10;76.20
40622;DHT22;26324;52.040;11.528;2023-11-19T09:22:25;13.10;75.80
40622;DHT22;26324;52.040;11.528;2023-11-19T09:24:53;13.10;75.40
40622;DHT22;26324;52.040;11.528;2023-11-19T09:27:20;13.10;74.80
40622;DHT22;26324;52.040;11.528;2023-11-19T09:29:48;13.10;74.60
40622;DHT22;26324;52.040;11.528;2023-11-19T09:32:17;13.10;74.00
40622;DHT22;26324;52.040;11.528;2023-11-19T09:34:44;13.10;74.10
40622;DHT22;26324;52.040;11.528;2023-11-19T09:37:12;13.10;74.20
40622;DHT22;26324;52.040;11.528;2023-11-19T09:39:42;13.10;73.90
40622;DHT22;26324;52.040;11.528;2023-11-19T09:42:12;13.10;73.40
40622;DHT22;26324;52.040;11.528;2023-11-19T09:44:41;13.10;73.70
40622;DHT22;26324;52.040;11.528;2023-11-19T09:47:11;13.00;73.90
40622;DHT22;26324;52.040;11.528;2023-11-19T09:49:39;13.00;74.00
40622;DHT22;26324;52.040;11.528;2023-11-19T09:52:07;13.10;73.60
40622;DHT22;26324;52.040;11.528;2023-11-19T09:54:34;13.30;73.60
40622;DHT22;26324;52.040;11.528;2023-11-19T09:57:02;13.30;73.50
40622;DHT22;26324;52.040;11.528;2023-11-19T09:59:32;13.20;73.80
40622;DHT22;26324;52.040;11.528;2023-11-19T10:02:00;13.10;73.60
40622;DHT22;26324;52.040;11.528;2023-11-19T10:04:30;13.10;73.20
40622;DHT22;26324;52.040;11.528;2023-11-19T10:06:59;13.00;73.90
40622;DHT22;26324;52.040;11.528;2023-11-19T10:09:27;13.00;73.90
40622;DHT22;26324;52.040;11.528;2023-11-19T10:11:54;12.90;74.00
40622;DHT22;26324;52.040;11.528;2023-11-19T10:14:23;12.90;73.30
40622;DHT22;26324;52.040;11.528;2023-11-19T10:16:51;13.00;72.60
40622;DHT22;26324;52.040;11.528;2023-11-19T10:19:19;13.00;73.30
40622;DHT22;26324;52.040;11.528;2023-11-19T10:21:47;13.00;72.70
40622;DHT22;26324;52.040;11.528;2023-11-19T10:24:16;13.00;73.00
40622;DHT22;26324;52.040;11.528;2023-11-19T10:26:48;13.00;73.30
40622;DHT22;26324;52.040;11.528;2023-11-19T10:29:15;13.00;73.80
40622;DHT22;26324;52.040;11.528;2023-11-19T10:31:56;12.90;74.50
40622;DHT22;26324;52.040;11.528;2023-11-19T10:34:27;12.90;73.80
40622;DHT22;26324;52.040;11.528;2023-11-19T10:36:55;12.90;73.40
40622;DHT22;26324;52.040;11.528;2023-11-19T10:39:22;12.90;73.90
40622;DHT22;26324;52.040;11.528;2023-11-19T10:41:50;13.00;73.90
40622;DHT22;26324;52.040;11.528;2023-11-19T10:44:32;13.00;73.40
40622;DHT22;26324;52.040;11.528;2023-11-19T10:47:05;13.10;73.30
40622;DHT22;26324;52.040;11.528;2023-11-19T10:49:33;13.10;73.00
40622;DHT22;26324;52.040;11.528;2023-11-19T10:52:03;13.10;73.20
40622;DHT22;26324;52.040;11.528;2023-11-19T10:54:32;13.30;72.10
40622;DHT22;26324;52.040;11.528;2023-11-19T10:57:02;13.50;71.80
40622;DHT22;26324;52.040;11.528;2023-11-19T10:59:30;13.80;70.70
40622;DHT22;26324;52.040;11.528;2023-11-19T11:02:05;14.20;70.10
40622;DHT22;26324;52.040;11.528;2023-11-19T11:04:39;14.20;69.60
40622;DHT22;26324;52.040;11.528;2023-11-19T11:07:07;14.20;69.50
40622;DHT22;26324;52.040;11.528;2023-11-19T11:09:36;14.00;70.00
40622;DHT22;26324;52.040;11.528;2023-11-19T11:12:04;14.10;70.00
40622;DHT22;26324;52.040;11.528;2023-11-19T11:14:34;14.30;69.50
40622;DHT22;26324;52.040;11.528;2023-11-19T11:17:04;14.40;68.60
40622;DHT22;26324;52.040;11.528;2023-11-19T11:19:36;14.70;68.70
40622;DHT22;26324;52.040;11.528;2023-11-19T11:22:05;14.80;67.20
40622;DHT22;26324;52.040;11.528;2023-11-19T11:24:53;14.90;67.40
40622;DHT22;26324;52.040;11.528;2023-11-19T11:27:40;15.00;66.00
40622;DHT22;26324;52.040;11.528;2023-11-19T11:33:32;15.10;66.00
40622;DHT22;26324;52.040;11.528;2023-11-19T11:36:21;15.10;65.80
40622;DHT22;26324;52.040;11.528;2023-11-19T11:38:50;15.10;66.60
40622;DHT22;26324;52.040;11.528;2023-11-19T11:41:24;15.20;66.50
40622;DHT22;26324;52.040;11.528;2023-11-19T11:43:56;15.50;66.10
40622;DHT22;26324;52.040;11.528;2023-11-19T11:49:03;15.80;64.50
40622;DHT22;26324;52.040;11.528;2023-11-19T11:57:02;15.50;63.70
40622;DHT22;26324;52.040;11.528;2023-11-19T11:59:36;15.30;64.20
40622;DHT22;26324;52.040;11.528;2023-11-19T12:02:04;15.40;64.70
40622;DHT22;26324;52.040;11.528;2023-11-19T12:04:35;15.50;63.90
40622;DHT22;26324;52.040;11.528;2023-11-19T12:07:13;15.40;64.40
40622;DHT22;26324;52.040;11.528;2023-11-19T12:09:41;15.20;65.40
40622;DHT22;26324;52.040;11.528;2023-11-19T12:12:17;15.30;65.40
40622;DHT22;26324;52.040;11.528;2023-11-19T12:17:41;15.60;64.40
40622;DHT22;26324;52.040;11.528;2023-11-19T12:20:12;15.50;64.80
40622;DHT22;26324;52.040;11.528;2023-11-19T12:22:41;15.20;65.90
40622;DHT22;26324;52.040;11.528;2023-11-19T12:25:10;15.10;65.90
40622;DHT22;26324;52.040;11.528;2023-11-19T12:27:46;15.20;65.10
40622;DHT22;26324;52.040;11.528;2023-11-19T12:30:24;15.50;64.40
40622;DHT22;26324;52.040;11.528;2023-11-19T12:32:53;15.70;64.00
40622;DHT22;26324;52.040;11.528;2023-11-19T12:35:22;15.50;64.40
40622;DHT22;26324;52.040;11.528;2023-11-19T12:37:50;15.20;65.00
40622;DHT22;26324;52.040;11.528;2023-11-19T12:40:20;15.10;66.40
40622;DHT22;26324;52.040;11.528;2023-11-19T12:42:49;15.40;66.00
40622;DHT22;26324;52.040;11.528;2023-11-19T12:45:17;15.60;64.80
40622;DHT22;26324;52.040;11.528;2023-11-19T12:47:46;15.90;63.90
40622;DHT22;26324;52.040;11.528;2023-11-19T12:50:19;16.20;62.90
40622;DHT22;26324;52.040;11.528;2023-11-19T12:52:56;16.00;61.80
40622;DHT22;26324;52.040;11.528;2023-11-19T12:55:28;15.50;63.80
40622;DHT22;26324;52.040;11.528;2023-11-19T12:57:57;14.80;64.80
40622;DHT22;26324;52.040;11.528;2023-11-19T13:00:27;14.60;65.40
40622;DHT22;26324;52.040;11.528;2023-11-19T13:02:56;14.50;66.00
40622;DHT22;26324;52.040;11.528;2023-11-19T13:05:30;14.50;65.70
40622;DHT22;26324;52.040;11.528;2023-11-19T13:08:04;14.50;65.70
40622;DHT22;26324;52.040;11.528;2023-11-19T13:10:33;14.60;65.90
40622;DHT22;26324;52.040;11.528;2023-11-19T13:13:04;14.80;65.00
40622;DHT22;26324;52.040;11.528;2023-11-19T13:15:33;15.10;64.70
40622;DHT22;26324;52.040;11.528;2023-11-19T13:18:01;15.80;63.00
40622;DHT22;26324;52.040;11.528;2023-11-19T13:20:29;16.30;60.90
40622;DHT22;26324;52.040;11.528;2023-11-19T13:23:00;16.30;60.30
40622;DHT22;26324;52.040;11.528;2023-11-19T13:25:29;16.20;60.80
40622;DHT22;26324;52.040;11.528;2023-11-19T13:27:56;16.30;59.30
40622;DHT22;26324;52.040;11.528;2023-11-19T13:30:25;16.30;58.80
40622;DHT22;26324;52.040;11.528;2023-11-19T13:32:54;16.20;59.10
40622;DHT22;26324;52.040;11.528;2023-11-19T13:35:23;16.00;59.70
40622;DHT22;26324;52.040;11.528;2023-11-19T13:37:50;15.70;59.90
40622;DHT22;26324;52.040;11.528;2023-11-19T13:40:19;15.10;62.30
40622;DHT22;26324;52.040;11.528;2023-11-19T13:42:47;14.50;64.50
40622;DHT22;26324;52.040;11.528;2023-11-19T13:45:15;14.30;65.40
40622;DHT22;26324;52.040;11.528;2023-11-19T13:47:43;14.10;66.40
40622;DHT22;26324;52.040;11.528;2023-11-19T13:50:15;14.10;67.10
40622;DHT22;26324;52.040;11.528;2023-11-19T13:52:44;13.90;67.20
40622;DHT22;26324;52.040;11.528;2023-11-19T13:55:14;13.70;67.70
40622;DHT22;26324;52.040;11.528;2023-11-19T13:57:42;13.50;68.70
40622;DHT22;26324;52.040;11.528;2023-11-19T14:00:11;13.50;68.90
40622;DHT22;26324;52.040;11.528;2023-11-19T14:02:44;13.50;69.10
40622;DHT22;26324;52.040;11.528;2023-11-19T14:05:12;13.60;68.80
40622;DHT22;26324;52.040;11.528;2023-11-19T14:07:40;13.40;69.40
40622;DHT22;26324;52.040;11.528;2023-11-19T14:10:08;13.40;69.60
40622;DHT22;26324;52.040;11.528;2023-11-19T14:12:40;13.30;70.20
40622;DHT22;26324;52.040;11.528;2023-11-19T14:15:09;13.30;70.10
40622;DHT22;26324;52.040;11.528;2023-11-19T14:17:36;13.30;70.10
40622;DHT22;26324;52.040;11.528;2023-11-19T14:20:04;13.30;70.30
40622;DHT22;26324;52.040;11.528;2023-11-19T14:22:40;13.20;70.70
40622;DHT22;26324;52.040;11.528;2023-11-19T14:25:09;13.20;70.90
40622;DHT22;26324;52.040;11.528;2023-11-19T14:27:38;13.10;71.10
40622;DHT22;26324;52.040;11.528;2023-11-19T14:30:06;13.10;71.10
40622;DHT22;26324;52.040;11.528;2023-11-19T14:32:43;13.00;71.20
40622;DHT22;26324;52.040;11.528;2023-11-19T14:35:13;13.00;71.50
40622;DHT22;26324;52.040;11.528;2023-11-19T14:37:40;13.00;71.40
40622;DHT22;26324;52.040;11.528;2023-11-19T14:40:08;12.90;71.50
40622;DHT22;26324;52.040;11.528;2023-11-19T14:42:38;12.90;72.10
40622;DHT22;26324;52.040;11.528;2023-11-19T14:45:07;12.80;72.30
40622;DHT22;26324;52.040;11.528;2023-11-19T14:47:34;12.60;72.90
40622;DHT22;26324;52.040;11.528;2023-11-19T14:50:02;12.60;73.40
40622;DHT22;26324;52.040;11.528;2023-11-19T14:52:30;12.60;73.60
40622;DHT22;26324;52.040;11.528;2023-11-19T14:54:57;12.70;73.70
40622;DHT22;26324;52.040;11.528;2023-11-19T14:57:25;12.60;73.80
40622;DHT22;26324;52.040;11.528;2023-11-19T14:59:52;12.60;74.00
40622;DHT22;26324;52.040;11.528;2023-11-19T15:02:19;12.60;73.80
40622;DHT22;26324;52.040;11.528;2023-11-19T15:04:46;12.60;73.70
40622;DHT22;26324;52.040;11.528;2023-11-19T15:07:14;12.60;73.30
40622;DHT22;26324;52.040;11.528;2023-11-19T15:09:42;12.60;73.60
40622;DHT22;26324;52.040;11.528;2023-11-19T15:12:09;12.60;73.70
40622;DHT22;26324;52.040;11.528;2023-11-19T15:14:36;12.50;74.00
40622;DHT22;26324;52.040;11.528;2023-11-19T15:17:05;12.60;73.60
40622;DHT22;26324;52.040;11.528;2023-11-19T15:19:34;12.60;73.10
40622;DHT22;26324;52.040;11.528;2023-11-19T15:22:01;12.60;72.80
40622;DHT22;26324;52.040;11.528;2023-11-19T15:24:32;12.60;72.80
40622;DHT22;26324;52.040;11.528;2023-11-19T15:26:59;12.60;73.30
40622;DHT22;26324;52.040;11.528;2023-11-19T15:29:29;12.60;73.30
40622;DHT22;26324;52.040;11.528;2023-11-19T15:31:57;12.60;73.00
40622;DHT22;26324;52.040;11.528;2023-11-19T15:34:25;12.60;73.20
40622;DHT22;26324;52.040;11.528;2023-11-19T15:36:52;12.60;74.00
40622;DHT22;26324;52.040;11.528;2023-11-19T15:39:19;12.50;75.30
40622;DHT22;26324;52.040;11.528;2023-11-19T15:41:46;12.30;76.30
40622;DHT22;26324;52.040;11.528;2023-11-19T15:44:14;12.30;76.70
40622;DHT22;26324;52.040;11.528;2023-11-19T15:46:41;12.30;76.60
40622;DHT22;26324;52.040;11.528;2023-11-19T15:49:09;12.10;76.90